sensor_id;sensor_type;location;lat;lon;timestamp;P1;durP1;ratioP1;P2;durP2;ratioP2
2650;SDS011;1335;48.180;16.342;2023-06-14T00:02:24;4.93;;;4.40;;
2650;SDS011;1335;48.180;16.342;2023-06-14T00:04:51;5.10;;;4.60;;
2650;SDS011;1335;48.180;16.342;2023-06-14T00:07:21;5.07;;;4.30;;
2650;SDS011;1335;48.180;16.342;2023-06-14T00:10:00;5.23;;;4.73;;
2650;SDS011;1335;48.180;16.342;2023-06-14T00:12:27;5.63;;;5.00;;
2650;SDS011;1335;48.180;16.342;2023-06-14T00:14:54;4.30;;;3.77;;
2650;SDS011;1335;48.180;16.342;2023-06-14T00:17:22;5.37;;;3.90;;
2650;SDS011;1335;48.180;16.342;2023-06-14T00:19:51;6.90;;;5.00;;
2650;SDS011;1335;48.180;16.342;2023-06-14T00:22:19;4.77;;;4.27;;
2650;SDS011;1335;48.180;16.342;2023-06-14T00:24:46;4.77;;;4.37;;
2650;SDS011;1335;48.180;16.342;2023-06-14T00:27:13;4.20;;;3.70;;
2650;SDS011;1335;48.180;16.342;2023-06-14T00:29:41;4.40;;;4.00;;
2650;SDS011;1335;48.180;16.342;2023-06-14T00:32:08;4.73;;;4.00;;
2650;SDS011;1335;48.180;16.342;2023-06-14T00:34:35;7.80;;;4.60;;
2650;SDS011;1335;48.180;16.342;2023-06-14T00:37:04;5.40;;;4.20;;
2650;SDS011;1335;48.180;16.342;2023-06-14T00:39:32;4.23;;;3.80;;
2650;SDS011;1335;48.180;16.342;2023-06-14T00:41:59;7.00;;;3.97;;
2650;SDS011;1335;48.180;16.342;2023-06-14T00:44:27;5.20;;;4.70;;
2650;SDS011;1335;48.180;16.342;2023-06-14T00:46:54;5.80;;;4.33;;
2650;SDS011;1335;48.180;16.342;2023-06-14T00:49:21;4.47;;;4.17;;
2650;SDS011;1335;48.180;16.342;2023-06-14T00:51:49;4.50;;;4.10;;
2650;SDS011;1335;48.180;16.342;2023-06-14T00:54:17;4.50;;;4.10;;
2650;SDS011;1335;48.180;16.342;2023-06-14T00:56:45;4.23;;;3.83;;
2650;SDS011;1335;48.180;16.342;2023-06-14T00:59:12;4.80;;;4.40;;
2650;SDS011;1335;48.180;16.342;2023-06-14T01:01:40;5.17;;;4.77;;
2650;SDS011;1335;48.180;16.342;2023-06-14T01:04:07;5.30;;;4.57;;
2650;SDS011;1335;48.180;16.342;2023-06-14T01:06:37;4.50;;;4.10;;
2650;SDS011;1335;48.180;16.342;2023-06-14T01:09:11;4.43;;;4.03;;
2650;SDS011;1335;48.180;16.342;2023-06-14T01:11:45;4.83;;;4.43;;
2650;SDS011;1335;48.180;16.342;2023-06-14T01:14:14;4.73;;;4.43;;
2650;SDS011;1335;48.180;16.342;2023-06-14T01:16:43;5.07;;;4.43;;
2650;SDS011;1335;48.180;16.342;2023-06-14T01:19:11;4.57;;;4.17;;
2650;SDS011;1335;48.180;16.342;2023-06-14T01:21:39;4.13;;;3.73;;
2650;SDS011;1335;48.180;16.342;2023-06-14T01:24:09;4.70;;;4.40;;
2650;SDS011;1335;48.180;16.342;2023-06-14T01:26:37;6.53;;;4.20;;
2650;SDS011;1335;48.180;16.342;2023-06-14T01:29:10;4.90;;;3.90;;
2650;SDS011;1335;48.180;16.342;2023-06-14T01:31:41;5.00;;;4.07;;
2650;SDS011;1335;48.180;16.342;2023-06-14T01:34:10;4.23;;;3.83;;
2650;SDS011;1335;48.180;16.342;2023-06-14T01:36:38;4.43;;;4.03;;
2650;SDS011;1335;48.180;16.342;2023-06-14T01:39:07;4.23;;;3.93;;
2650;SDS011;1335;48.180;16.342;2023-06-14T01:41:36;4.30;;;3.90;;
2650;SDS011;1335;48.180;16.342;2023-06-14T01:44:04;4.67;;;4.27;;
2650;SDS011;1335;48.180;16.342;2023-06-14T01:46:31;4.10;;;3.70;;
2650;SDS011;1335;48.180;16.342;2023-06-14T01:48:59;4.30;;;3.90;;
2650;SDS011;1335;48.180;16.342;2023-06-14T01:51:27;4.87;;;4.47;;
2650;SDS011;1335;48.180;16.342;2023-06-14T01:53:54;5.23;;;4.73;;
2650;SDS011;1335;48.180;16.342;2023-06-14T01:56:22;4.60;;;4.20;;
2650;SDS011;1335;48.180;16.342;2023-06-14T01:58:51;4.27;;;3.87;;
2650;SDS011;1335;48.180;16.342;2023-06-14T02:01:18;6.80;;;4.70;;
2650;SDS011;1335;48.180;16.342;2023-06-14T02:03:46;5.97;;;3.90;;
2650;SDS011;1335;48.180;16.342;2023-06-14T02:06:14;6.20;;;4.23;;
2650;SDS011;1335;48.180;16.342;2023-06-14T02:08:42;4.23;;;3.83;;
2650;SDS011;1335;48.180;16.342;2023-06-14T02:11:10;3.93;;;3.63;;
2650;SDS011;1335;48.180;16.342;2023-06-14T02:13:37;3.63;;;3.30;;
2650;SDS011;1335;48.180;16.342;2023-06-14T02:16:06;5.97;;;4.13;;
2650;SDS011;1335;48.180;16.342;2023-06-14T02:18:33;5.43;;;4.50;;
2650;SDS011;1335;48.180;16.342;2023-06-14T02:21:00;5.37;;;3.90;;
2650;SDS011;1335;48.180;16.342;2023-06-14T02:23:27;4.60;;;3.70;;
2650;SDS011;1335;48.180;16.342;2023-06-14T02:25:55;4.57;;;4.20;;
2650;SDS011;1335;48.180;16.342;2023-06-14T02:28:22;7.63;;;5.03;;
2650;SDS011;1335;48.180;16.342;2023-06-14T02:30:49;4.43;;;3.77;;
2650;SDS011;1335;48.180;16.342;2023-06-14T02:33:18;4.37;;;4.00;;
2650;SDS011;1335;48.180;16.342;2023-06-14T02:35:45;5.03;;;4.40;;
2650;SDS011;1335;48.180;16.342;2023-06-14T02:38:12;4.60;;;4.07;;
2650;SDS011;1335;48.180;16.342;2023-06-14T02:40:40;4.07;;;3.77;;
2650;SDS011;1335;48.180;16.342;2023-06-14T02:43:08;4.67;;;3.90;;
2650;SDS011;1335;48.180;16.342;2023-06-14T02:45:35;4.43;;;4.03;;
2650;SDS011;1335;48.180;16.342;2023-06-14T02:48:02;4.30;;;3.90;;
2650;SDS011;1335;48.180;16.342;2023-06-14T02:50:31;4.00;;;3.70;;
2650;SDS011;1335;48.180;16.342;2023-06-14T02:52:59;4.10;;;3.77;;
2650;SDS011;1335;48.180;16.342;2023-06-14T02:55:27;4.00;;;3.67;;
2650;SDS011;1335;48.180;16.342;2023-06-14T02:57:55;5.83;;;5.13;;
2650;SDS011;1335;48.180;16.342;2023-06-14T03:00:22;4.70;;;3.70;;
2650;SDS011;1335;48.180;16.342;2023-06-14T03:02:50;4.73;;;3.93;;
2650;SDS011;1335;48.180;16.342;2023-06-14T03:05:19;7.17;;;4.30;;
2650;SDS011;1335;48.180;16.342;2023-06-14T03:07:48;6.10;;;4.27;;
2650;SDS011;1335;48.180;16.342;2023-06-14T03:10:16;4.37;;;3.97;;
2650;SDS011;1335;48.180;16.342;2023-06-14T03:12:43;4.10;;;3.73;;
2650;SDS011;1335;48.180;16.342;2023-06-14T03:15:10;5.30;;;4.13;;
2650;SDS011;1335;48.180;16.342;2023-06-14T03:17:38;4.83;;;4.43;;
2650;SDS011;1335;48.180;16.342;2023-06-14T03:20:10;4.33;;;3.93;;
2650;SDS011;1335;48.180;16.342;2023-06-14T03:22:37;4.70;;;4.30;;
2650;SDS011;1335;48.180;16.342;2023-06-14T03:25:08;3.93;;;3.63;;
2650;SDS011;1335;48.180;16.342;2023-06-14T03:27:35;6.77;;;4.20;;
2650;SDS011;1335;48.180;16.342;2023-06-14T03:30:03;5.40;;;4.23;;
2650;SDS011;1335;48.180;16.342;2023-06-14T03:32:30;6.30;;;4.17;;
2650;SDS011;1335;48.180;16.342;2023-06-14T03:34:58;4.53;;;4.13;;
2650;SDS011;1335;48.180;16.342;2023-06-14T03:37:25;7.10;;;5.27;;
2650;SDS011;1335;48.180;16.342;2023-06-14T03:39:52;5.30;;;4.80;;
2650;SDS011;1335;48.180;16.342;2023-06-14T03:42:21;5.90;;;4.87;;
2650;SDS011;1335;48.180;16.342;2023-06-14T03:44:48;4.23;;;3.83;;
2650;SDS011;1335;48.180;16.342;2023-06-14T03:47:16;6.17;;;4.07;;
2650;SDS011;1335;48.180;16.342;2023-06-14T03:49:43;5.20;;;4.70;;
2650;SDS011;1335;48.180;16.342;2023-06-14T03:52:10;5.27;;;4.77;;
2650;SDS011;1335;48.180;16.342;2023-06-14T03:54:39;6.53;;;5.03;;
2650;SDS011;1335;48.180;16.342;2023-06-14T03:57:08;4.80;;;4.40;;
2650;SDS011;1335;48.180;16.342;2023-06-14T03:59:37;6.40;;;4.93;;
2650;SDS011;1335;48.180;16.342;2023-06-14T04:02:04;8.50;;;4.80;;
2650;SDS011;1335;48.180;16.342;2023-06-14T04:04:32;6.43;;;4.77;;
2650;SDS011;1335;48.180;16.342;2023-06-14T04:07:00;5.97;;;4.90;;
2650;SDS011;1335;48.180;16.342;2023-06-14T04:09:28;4.80;;;4.40;;
2650;SDS011;1335;48.180;16.342;2023-06-14T04:11:56;5.67;;;4.60;;
2650;SDS011;1335;48.180;16.342;2023-06-14T04:14:23;4.67;;;4.27;;
2650;SDS011;1335;48.180;16.342;2023-06-14T04:16:52;7.67;;;5.63;;
2650;SDS011;1335;48.180;16.342;2023-06-14T04:19:19;7.53;;;4.50;;
2650;SDS011;1335;48.180;16.342;2023-06-14T04:21:46;5.60;;;4.67;;
2650;SDS011;1335;48.180;16.342;2023-06-14T04:24:13;6.87;;;4.70;;
2650;SDS011;1335;48.180;16.342;2023-06-14T04:26:41;8.60;;;5.00;;
2650;SDS011;1335;48.180;16.342;2023-06-14T04:29:09;7.20;;;4.70;;
2650;SDS011;1335;48.180;16.342;2023-06-14T04:31:39;6.07;;;4.50;;
2650;SDS011;1335;48.180;16.342;2023-06-14T04:34:09;5.50;;;5.00;;
2650;SDS011;1335;48.180;16.342;2023-06-14T04:36:41;5.80;;;5.00;;
2650;SDS011;1335;48.180;16.342;2023-06-14T04:39:14;21.40;;;9.50;;
2650;SDS011;1335;48.180;16.342;2023-06-14T04:41:42;9.00;;;6.33;;
2650;SDS011;1335;48.180;16.342;2023-06-14T04:44:10;13.27;;;6.30;;
2650;SDS011;1335;48.180;16.342;2023-06-14T04:46:37;6.00;;;5.40;;
2650;SDS011;1335;48.180;16.342;2023-06-14T04:49:12;9.53;;;4.80;;
2650;SDS011;1335;48.180;16.342;2023-06-14T04:51:40;5.03;;;4.40;;
2650;SDS011;1335;48.180;16.342;2023-06-14T04:54:07;7.10;;;6.10;;
2650;SDS011;1335;48.180;16.342;2023-06-14T04:56:39;8.53;;;5.40;;
2650;SDS011;1335;48.180;16.342;2023-06-14T04:59:07;12.40;;;5.87;;
2650;SDS011;1335;48.180;16.342;2023-06-14T05:01:36;8.60;;;6.57;;
2650;SDS011;1335;48.180;16.342;2023-06-14T05:04:03;19.00;;;12.10;;
2650;SDS011;1335;48.180;16.342;2023-06-14T05:06:32;16.37;;;8.80;;
2650;SDS011;1335;48.180;16.342;2023-06-14T05:08:59;12.43;;;10.00;;
2650;SDS011;1335;48.180;16.342;2023-06-14T05:11:27;16.80;;;12.27;;
2650;SDS011;1335;48.180;16.342;2023-06-14T05:13:54;7.87;;;5.97;;
2650;SDS011;1335;48.180;16.342;2023-06-14T05:16:23;8.67;;;4.63;;
2650;SDS011;1335;48.180;16.342;2023-06-14T05:18:52;5.20;;;3.40;;
2650;SDS011;1335;48.180;16.342;2023-06-14T05:21:20;6.03;;;3.40;;
2650;SDS011;1335;48.180;16.342;2023-06-14T05:23:48;4.33;;;3.73;;
2650;SDS011;1335;48.180;16.342;2023-06-14T05:26:16;3.87;;;3.57;;
2650;SDS011;1335;48.180;16.342;2023-06-14T05:28:43;4.77;;;4.17;;
2650;SDS011;1335;48.180;16.342;2023-06-14T05:31:11;5.70;;;4.30;;
2650;SDS011;1335;48.180;16.342;2023-06-14T05:33:38;4.60;;;4.10;;
2650;SDS011;1335;48.180;16.342;2023-06-14T05:36:05;5.00;;;3.70;;
2650;SDS011;1335;48.180;16.342;2023-06-14T05:38:33;9.07;;;4.17;;
2650;SDS011;1335;48.180;16.342;2023-06-14T05:41:02;4.17;;;3.87;;
2650;SDS011;1335;48.180;16.342;2023-06-14T05:43:29;6.07;;;4.60;;
2650;SDS011;1335;48.180;16.342;2023-06-14T05:45:57;6.87;;;4.10;;
2650;SDS011;1335;48.180;16.342;2023-06-14T05:48:24;5.80;;;4.27;;
2650;SDS011;1335;48.180;16.342;2023-06-14T05:50:51;3.90;;;3.57;;
2650;SDS011;1335;48.180;16.342;2023-06-14T05:53:19;8.57;;;3.87;;
2650;SDS011;1335;48.180;16.342;2023-06-14T05:55:46;4.50;;;3.60;;
2650;SDS011;1335;48.180;16.342;2023-06-14T05:58:15;6.27;;;3.93;;
2650;SDS011;1335;48.180;16.342;2023-06-14T06:00:42;3.97;;;3.63;;
2650;SDS011;1335;48.180;16.342;2023-06-14T06:03:09;5.73;;;3.60;;
2650;SDS011;1335;48.180;16.342;2023-06-14T06:05:38;4.00;;;3.70;;
2650;SDS011;1335;48.180;16.342;2023-06-14T06:08:06;4.07;;;3.73;;
2650;SDS011;1335;48.180;16.342;2023-06-14T06:10:34;4.27;;;3.37;;
2650;SDS011;1335;48.180;16.342;2023-06-14T06:13:01;5.40;;;4.63;;
2650;SDS011;1335;48.180;16.342;2023-06-14T06:15:32;4.33;;;3.87;;
2650;SDS011;1335;48.180;16.342;2023-06-14T06:18:00;7.20;;;4.10;;
2650;SDS011;1335;48.180;16.342;2023-06-14T06:20:29;9.93;;;4.40;;
2650;SDS011;1335;48.180;16.342;2023-06-14T06:22:56;4.30;;;3.80;;
2650;SDS011;1335;48.180;16.342;2023-06-14T06:25:24;8.20;;;5.40;;
2650;SDS011;1335;48.180;16.342;2023-06-14T06:27:52;6.47;;;3.90;;
2650;SDS011;1335;48.180;16.342;2023-06-14T06:30:19;8.47;;;3.47;;
2650;SDS011;1335;48.180;16.342;2023-06-14T06:32:49;6.37;;;3.63;;
2650;SDS011;1335;48.180;16.342;2023-06-14T06:35:17;6.93;;;3.30;;
2650;SDS011;1335;48.180;16.342;2023-06-14T06:37:44;9.57;;;4.23;;
2650;SDS011;1335;48.180;16.342;2023-06-14T06:40:11;4.07;;;3.63;;
2650;SDS011;1335;48.180;16.342;2023-06-14T06:42:39;3.23;;;2.90;;
2650;SDS011;1335;48.180;16.342;2023-06-14T06:45:06;3.43;;;3.20;;
2650;SDS011;1335;48.180;16.342;2023-06-14T06:47:34;5.00;;;3.37;;
2650;SDS011;1335;48.180;16.342;2023-06-14T06:50:03;3.37;;;3.07;;
2650;SDS011;1335;48.180;16.342;2023-06-14T06:52:32;3.97;;;3.60;;
2650;SDS011;1335;48.180;16.342;2023-06-14T06:55:00;5.37;;;3.50;;
2650;SDS011;1335;48.180;16.342;2023-06-14T06:57:28;7.47;;;5.60;;
2650;SDS011;1335;48.180;16.342;2023-06-14T06:59:55;6.40;;;3.50;;
2650;SDS011;1335;48.180;16.342;2023-06-14T07:02:23;5.70;;;4.83;;
2650;SDS011;1335;48.180;16.342;2023-06-14T07:04:50;4.70;;;3.40;;
2650;SDS011;1335;48.180;16.342;2023-06-14T07:07:19;4.50;;;3.17;;
2650;SDS011;1335;48.180;16.342;2023-06-14T07:09:46;7.40;;;4.63;;
2650;SDS011;1335;48.180;16.342;2023-06-14T07:12:14;5.63;;;3.57;;
2650;SDS011;1335;48.180;16.342;2023-06-14T07:14:41;4.87;;;3.43;;
2650;SDS011;1335;48.180;16.342;2023-06-14T07:17:09;3.90;;;3.50;;
2650;SDS011;1335;48.180;16.342;2023-06-14T07:19:36;4.00;;;3.50;;
2650;SDS011;1335;48.180;16.342;2023-06-14T07:22:04;3.13;;;2.83;;
2650;SDS011;1335;48.180;16.342;2023-06-14T07:24:32;5.30;;;4.13;;
2650;SDS011;1335;48.180;16.342;2023-06-14T07:27:01;5.53;;;4.00;;
2650;SDS011;1335;48.180;16.342;2023-06-14T07:29:29;8.33;;;5.17;;
2650;SDS011;1335;48.180;16.342;2023-06-14T07:31:57;5.23;;;3.50;;
2650;SDS011;1335;48.180;16.342;2023-06-14T07:34:24;4.23;;;3.70;;
2650;SDS011;1335;48.180;16.342;2023-06-14T07:36:52;4.40;;;3.50;;
2650;SDS011;1335;48.180;16.342;2023-06-14T07:39:20;3.90;;;3.50;;
2650;SDS011;1335;48.180;16.342;2023-06-14T07:41:50;3.60;;;3.30;;
2650;SDS011;1335;48.180;16.342;2023-06-14T07:44:17;3.67;;;3.37;;
2650;SDS011;1335;48.180;16.342;2023-06-14T07:46:44;3.30;;;3.10;;
2650;SDS011;1335;48.180;16.342;2023-06-14T07:49:14;3.67;;;2.70;;
2650;SDS011;1335;48.180;16.342;2023-06-14T07:51:41;5.13;;;3.10;;
2650;SDS011;1335;48.180;16.342;2023-06-14T07:54:11;3.77;;;3.40;;
2650;SDS011;1335;48.180;16.342;2023-06-14T07:56:39;3.40;;;3.20;;
2650;SDS011;1335;48.180;16.342;2023-06-14T07:59:07;6.97;;;2.90;;
2650;SDS011;1335;48.180;16.342;2023-06-14T08:01:35;4.10;;;3.07;;
2650;SDS011;1335;48.180;16.342;2023-06-14T08:04:02;7.00;;;3.57;;
2650;SDS011;1335;48.180;16.342;2023-06-14T08:06:30;3.23;;;2.93;;
2650;SDS011;1335;48.180;16.342;2023-06-14T08:08:58;3.27;;;2.90;;
2650;SDS011;1335;48.180;16.342;2023-06-14T08:11:25;4.30;;;3.27;;
2650;SDS011;1335;48.180;16.342;2023-06-14T08:13:53;4.30;;;3.73;;
2650;SDS011;1335;48.180;16.342;2023-06-14T08:16:21;4.17;;;3.87;;
2650;SDS011;1335;48.180;16.342;2023-06-14T08:18:49;7.00;;;3.50;;
2650;SDS011;1335;48.180;16.342;2023-06-14T08:21:16;3.63;;;3.33;;
2650;SDS011;1335;48.180;16.342;2023-06-14T08:23:43;6.70;;;4.33;;
2650;SDS011;1335;48.180;16.342;2023-06-14T08:26:10;8.07;;;7.23;;
2650;SDS011;1335;48.180;16.342;2023-06-14T08:28:38;3.67;;;3.33;;
2650;SDS011;1335;48.180;16.342;2023-06-14T08:31:05;7.30;;;3.47;;
2650;SDS011;1335;48.180;16.342;2023-06-14T08:33:34;3.37;;;3.07;;
2650;SDS011;1335;48.180;16.342;2023-06-14T08:36:01;4.17;;;3.60;;
2650;SDS011;1335;48.180;16.342;2023-06-14T08:38:28;3.23;;;2.97;;
2650;SDS011;1335;48.180;16.342;2023-06-14T08:40:56;3.73;;;3.37;;
2650;SDS011;1335;48.180;16.342;2023-06-14T08:43:24;8.90;;;4.10;;
2650;SDS011;1335;48.180;16.342;2023-06-14T08:45:53;4.13;;;3.70;;
2650;SDS011;1335;48.180;16.342;2023-06-14T08:48:20;4.27;;;3.53;;
2650;SDS011;1335;48.180;16.342;2023-06-14T08:50:51;8.33;;;4.43;;
2650;SDS011;1335;48.180;16.342;2023-06-14T08:53:26;5.20;;;4.10;;
2650;SDS011;1335;48.180;16.342;2023-06-14T08:55:57;5.07;;;3.70;;
2650;SDS011;1335;48.180;16.342;2023-06-14T08:58:26;15.90;;;4.97;;
2650;SDS011;1335;48.180;16.342;2023-06-14T09:00:54;3.90;;;3.27;;
2650;SDS011;1335;48.180;16.342;2023-06-14T09:03:22;7.37;;;3.70;;
2650;SDS011;1335;48.180;16.342;2023-06-14T09:05:56;8.30;;;4.93;;
2650;SDS011;1335;48.180;16.342;2023-06-14T09:08:26;7.70;;;4.63;;
2650;SDS011;1335;48.180;16.342;2023-06-14T09:10:55;6.93;;;3.57;;
2650;SDS011;1335;48.180;16.342;2023-06-14T09:13:23;4.43;;;3.73;;
2650;SDS011;1335;48.180;16.342;2023-06-14T09:15:50;5.13;;;3.17;;
2650;SDS011;1335;48.180;16.342;2023-06-14T09:18:17;7.23;;;4.17;;
2650;SDS011;1335;48.180;16.342;2023-06-14T09:20:46;5.40;;;3.53;;
2650;SDS011;1335;48.180;16.342;2023-06-14T09:23:15;3.87;;;3.40;;
2650;SDS011;1335;48.180;16.342;2023-06-14T09:25:47;5.87;;;3.83;;
2650;SDS011;1335;48.180;16.342;2023-06-14T09:28:15;5.67;;;3.40;;
2650;SDS011;1335;48.180;16.342;2023-06-14T09:30:42;3.60;;;3.20;;
2650;SDS011;1335;48.180;16.342;2023-06-14T09:33:09;8.43;;;3.80;;
2650;SDS011;1335;48.180;16.342;2023-06-14T09:35:37;4.27;;;3.33;;
2650;SDS011;1335;48.180;16.342;2023-06-14T09:38:04;6.63;;;3.00;;
2650;SDS011;1335;48.180;16.342;2023-06-14T09:40:35;4.97;;;3.50;;
2650;SDS011;1335;48.180;16.342;2023-06-14T09:43:04;5.37;;;3.07;;
2650;SDS011;1335;48.180;16.342;2023-06-14T09:45:33;9.80;;;4.07;;
2650;SDS011;1335;48.180;16.342;2023-06-14T09:48:00;5.07;;;3.67;;
2650;SDS011;1335;48.180;16.342;2023-06-14T09:50:28;5.47;;;3.20;;
2650;SDS011;1335;48.180;16.342;2023-06-14T09:52:56;4.00;;;3.40;;
2650;SDS011;1335;48.180;16.342;2023-06-14T09:55:25;3.13;;;2.83;;
2650;SDS011;1335;48.180;16.342;2023-06-14T09:57:55;3.17;;;2.97;;
2650;SDS011;1335;48.180;16.342;2023-06-14T10:00:23;3.77;;;3.33;;
2650;SDS011;1335;48.180;16.342;2023-06-14T10:02:54;2.50;;;2.30;;
2650;SDS011;1335;48.180;16.342;2023-06-14T10:05:25;3.10;;;2.90;;
2650;SDS011;1335;48.180;16.342;2023-06-14T10:07:55;8.13;;;3.53;;
2650;SDS011;1335;48.180;16.342;2023-06-14T10:10:22;3.93;;;3.53;;
2650;SDS011;1335;48.180;16.342;2023-06-14T10:12:50;3.40;;;3.10;;
2650;SDS011;1335;48.180;16.342;2023-06-14T10:15:20;4.10;;;3.30;;
2650;SDS011;1335;48.180;16.342;2023-06-14T10:17:51;3.97;;;3.10;;
2650;SDS011;1335;48.180;16.342;2023-06-14T10:20:26;11.50;;;4.87;;
2650;SDS011;1335;48.180;16.342;2023-06-14T10:22:56;4.33;;;3.93;;
2650;SDS011;1335;48.180;16.342;2023-06-14T10:25:25;3.90;;;3.60;;
2650;SDS011;1335;48.180;16.342;2023-06-14T10:28:01;5.33;;;4.10;;
2650;SDS011;1335;48.180;16.342;2023-06-14T10:30:30;3.80;;;3.60;;
2650;SDS011;1335;48.180;16.342;2023-06-14T10:33:04;5.53;;;3.03;;
2650;SDS011;1335;48.180;16.342;2023-06-14T10:35:31;6.77;;;4.17;;
2650;SDS011;1335;48.180;16.342;2023-06-14T10:38:06;4.03;;;3.20;;
2650;SDS011;1335;48.180;16.342;2023-06-14T10:40:34;4.50;;;3.40;;
2650;SDS011;1335;48.180;16.342;2023-06-14T10:43:01;3.83;;;3.53;;
2650;SDS011;1335;48.180;16.342;2023-06-14T10:48:35;4.77;;;4.37;;
2650;SDS011;1335;48.180;16.342;2023-06-14T10:51:10;5.73;;;2.60;;
2650;SDS011;1335;48.180;16.342;2023-06-14T10:53:41;3.20;;;2.87;;
2650;SDS011;1335;48.180;16.342;2023-06-14T10:56:11;5.90;;;3.53;;
2650;SDS011;1335;48.180;16.342;2023-06-14T10:58:51;3.33;;;3.13;;
2650;SDS011;1335;48.180;16.342;2023-06-14T11:01:19;3.57;;;3.20;;
2650;SDS011;1335;48.180;16.342;2023-06-14T11:03:52;3.73;;;3.00;;
2650;SDS011;1335;48.180;16.342;2023-06-14T11:06:21;4.43;;;2.90;;
2650;SDS011;1335;48.180;16.342;2023-06-14T11:11:37;4.00;;;3.00;;
2650;SDS011;1335;48.180;16.342;2023-06-14T11:14:05;6.70;;;2.60;;
2650;SDS011;1335;48.180;16.342;2023-06-14T11:16:32;4.27;;;3.10;;
2650;SDS011;1335;48.180;16.342;2023-06-14T11:19:01;4.87;;;2.67;;
2650;SDS011;1335;48.180;16.342;2023-06-14T11:21:29;2.70;;;2.50;;
2650;SDS011;1335;48.180;16.342;2023-06-14T11:23:58;3.63;;;2.63;;
2650;SDS011;1335;48.180;16.342;2023-06-14T11:26:25;4.17;;;3.40;;
2650;SDS011;1335;48.180;16.342;2023-06-14T11:28:57;3.87;;;3.00;;
2650;SDS011;1335;48.180;16.342;2023-06-14T11:31:24;3.47;;;3.17;;
2650;SDS011;1335;48.180;16.342;2023-06-14T11:33:53;3.97;;;2.80;;
2650;SDS011;1335;48.180;16.342;2023-06-14T11:36:23;5.07;;;2.93;;
2650;SDS011;1335;48.180;16.342;2023-06-14T11:38:57;5.53;;;2.80;;
2650;SDS011;1335;48.180;16.342;2023-06-14T11:41:25;3.23;;;3.00;;
2650;SDS011;1335;48.180;16.342;2023-06-14T11:43:52;3.33;;;3.03;;
2650;SDS011;1335;48.180;16.342;2023-06-14T11:46:20;3.83;;;2.80;;
2650;SDS011;1335;48.180;16.342;2023-06-14T11:48:49;3.67;;;2.87;;
2650;SDS011;1335;48.180;16.342;2023-06-14T11:51:18;7.73;;;3.83;;
2650;SDS011;1335;48.180;16.342;2023-06-14T11:53:47;3.50;;;3.20;;
2650;SDS011;1335;48.180;16.342;2023-06-14T11:56:15;7.40;;;2.90;;
2650;SDS011;1335;48.180;16.342;2023-06-14T11:58:42;3.40;;;3.20;;
2650;SDS011;1335;48.180;16.342;2023-06-14T12:01:14;5.37;;;3.10;;
2650;SDS011;1335;48.180;16.342;2023-06-14T12:03:46;3.10;;;2.80;;
2650;SDS011;1335;48.180;16.342;2023-06-14T12:06:14;4.10;;;3.20;;
2650;SDS011;1335;48.180;16.342;2023-06-14T12:08:43;3.50;;;3.10;;
2650;SDS011;1335;48.180;16.342;2023-06-14T12:11:15;8.63;;;3.23;;
2650;SDS011;1335;48.180;16.342;2023-06-14T12:13:43;3.70;;;3.37;;
2650;SDS011;1335;48.180;16.342;2023-06-14T12:16:10;3.80;;;2.87;;
2650;SDS011;1335;48.180;16.342;2023-06-14T12:18:39;4.47;;;3.40;;
2650;SDS011;1335;48.180;16.342;2023-06-14T12:21:08;4.17;;;3.00;;
2650;SDS011;1335;48.180;16.342;2023-06-14T12:23:43;7.33;;;3.70;;
2650;SDS011;1335;48.180;16.342;2023-06-14T12:26:12;3.63;;;3.33;;
2650;SDS011;1335;48.180;16.342;2023-06-14T12:28:41;3.90;;;3.50;;
2650;SDS011;1335;48.180;16.342;2023-06-14T12:31:09;4.17;;;3.00;;
2650;SDS011;1335;48.180;16.342;2023-06-14T12:33:37;7.50;;;3.80;;
2650;SDS011;1335;48.180;16.342;2023-06-14T12:36:04;3.43;;;3.10;;
2650;SDS011;1335;48.180;16.342;2023-06-14T12:38:32;9.90;;;4.00;;
2650;SDS011;1335;48.180;16.342;2023-06-14T12:40:59;4.97;;;3.60;;
2650;SDS011;1335;48.180;16.342;2023-06-14T12:43:27;4.17;;;3.63;;
2650;SDS011;1335;48.180;16.342;2023-06-14T12:45:55;3.17;;;2.87;;
2650;SDS011;1335;48.180;16.342;2023-06-14T12:48:23;5.30;;;2.70;;
2650;SDS011;1335;48.180;16.342;2023-06-14T12:50:52;4.43;;;3.50;;
2650;SDS011;1335;48.180;16.342;2023-06-14T12:53:19;5.13;;;3.43;;
2650;SDS011;1335;48.180;16.342;2023-06-14T12:55:48;3.27;;;3.07;;
2650;SDS011;1335;48.180;16.342;2023-06-14T12:58:15;3.27;;;2.73;;
2650;SDS011;1335;48.180;16.342;2023-06-14T13:00:44;4.57;;;2.93;;
2650;SDS011;1335;48.180;16.342;2023-06-14T13:03:13;3.37;;;3.17;;
2650;SDS011;1335;48.180;16.342;2023-06-14T13:05:40;4.07;;;3.73;;
2650;SDS011;1335;48.180;16.342;2023-06-14T13:08:08;3.10;;;2.90;;
2650;SDS011;1335;48.180;16.342;2023-06-14T13:10:35;3.50;;;3.20;;
2650;SDS011;1335;48.180;16.342;2023-06-14T13:13:03;7.60;;;3.57;;
2650;SDS011;1335;48.180;16.342;2023-06-14T13:15:30;5.83;;;2.93;;
2650;SDS011;1335;48.180;16.342;2023-06-14T13:17:57;6.50;;;3.10;;
2650;SDS011;1335;48.180;16.342;2023-06-14T13:20:26;3.80;;;2.93;;
2650;SDS011;1335;48.180;16.342;2023-06-14T13:22:53;5.50;;;3.30;;
2650;SDS011;1335;48.180;16.342;2023-06-14T13:25:20;7.73;;;3.03;;
2650;SDS011;1335;48.180;16.342;2023-06-14T13:27:48;3.77;;;2.97;;
2650;SDS011;1335;48.180;16.342;2023-06-14T13:30:15;3.40;;;3.10;;
2650;SDS011;1335;48.180;16.342;2023-06-14T13:32:43;5.47;;;3.60;;
2650;SDS011;1335;48.180;16.342;2023-06-14T13:35:10;4.37;;;3.33;;
2650;SDS011;1335;48.180;16.342;2023-06-14T13:37:38;3.30;;;3.00;;
2650;SDS011;1335;48.180;16.342;2023-06-14T13:40:06;4.33;;;3.20;;
2650;SDS011;1335;48.180;16.342;2023-06-14T13:42:34;4.53;;;3.40;;
2650;SDS011;1335;48.180;16.342;2023-06-14T13:45:01;3.47;;;3.10;;
2650;SDS011;1335;48.180;16.342;2023-06-14T13:47:29;3.47;;;3.17;;
2650;SDS011;1335;48.180;16.342;2023-06-14T13:49:56;3.23;;;2.93;;
2650;SDS011;1335;48.180;16.342;2023-06-14T13:52:23;6.50;;;2.87;;
2650;SDS011;1335;48.180;16.342;2023-06-14T13:54:52;3.70;;;3.40;;
2650;SDS011;1335;48.180;16.342;2023-06-14T13:57:19;4.20;;;2.97;;
2650;SDS011;1335;48.180;16.342;2023-06-14T13:59:47;5.80;;;3.00;;
2650;SDS011;1335;48.180;16.342;2023-06-14T14:02:14;3.77;;;2.80;;
2650;SDS011;1335;48.180;16.342;2023-06-14T14:04:41;3.20;;;2.90;;
2650;SDS011;1335;48.180;16.342;2023-06-14T14:07:09;3.93;;;2.93;;
2650;SDS011;1335;48.180;16.342;2023-06-14T14:09:36;5.50;;;3.47;;
2650;SDS011;1335;48.180;16.342;2023-06-14T14:12:06;3.70;;;3.40;;
2650;SDS011;1335;48.180;16.342;2023-06-14T14:14:33;7.20;;;3.03;;
2650;SDS011;1335;48.180;16.342;2023-06-14T14:17:00;3.33;;;3.07;;
2650;SDS011;1335;48.180;16.342;2023-06-14T14:19:28;3.10;;;2.80;;
2650;SDS011;1335;48.180;16.342;2023-06-14T14:21:55;4.53;;;3.57;;
2650;SDS011;1335;48.180;16.342;2023-06-14T14:24:22;4.57;;;2.90;;
2650;SDS011;1335;48.180;16.342;2023-06-14T14:26:50;3.83;;;3.37;;
2650;SDS011;1335;48.180;16.342;2023-06-14T14:29:20;3.43;;;3.13;;
2650;SDS011;1335;48.180;16.342;2023-06-14T14:31:48;3.80;;;3.30;;
2650;SDS011;1335;48.180;16.342;2023-06-14T14:34:15;3.20;;;3.00;;
2650;SDS011;1335;48.180;16.342;2023-06-14T14:36:42;5.13;;;3.40;;
2650;SDS011;1335;48.180;16.342;2023-06-14T14:39:09;4.53;;;3.60;;
2650;SDS011;1335;48.180;16.342;2023-06-14T14:41:37;3.57;;;3.00;;
2650;SDS011;1335;48.180;16.342;2023-06-14T14:44:05;4.00;;;2.97;;
2650;SDS011;1335;48.180;16.342;2023-06-14T14:46:34;4.00;;;3.23;;
2650;SDS011;1335;48.180;16.342;2023-06-14T14:49:01;6.83;;;2.93;;
2650;SDS011;1335;48.180;16.342;2023-06-14T14:51:28;4.53;;;3.50;;
2650;SDS011;1335;48.180;16.342;2023-06-14T14:53:55;3.53;;;3.23;;
2650;SDS011;1335;48.180;16.342;2023-06-14T14:56:23;4.33;;;3.53;;
2650;SDS011;1335;48.180;16.342;2023-06-14T14:58:50;3.00;;;2.73;;
2650;SDS011;1335;48.180;16.342;2023-06-14T15:01:18;4.40;;;3.17;;
2650;SDS011;1335;48.180;16.342;2023-06-14T15:03:46;2.70;;;2.50;;
2650;SDS011;1335;48.180;16.342;2023-06-14T15:06:14;4.70;;;3.60;;
2650;SDS011;1335;48.180;16.342;2023-06-14T15:08:43;5.10;;;3.03;;
2650;SDS011;1335;48.180;16.342;2023-06-14T15:11:10;3.03;;;2.70;;
2650;SDS011;1335;48.180;16.342;2023-06-14T15:13:37;4.10;;;3.30;;